This is the latest recevied weather packets stored in our database for station/object AD8BV. If no packets are shown the sender has not sent any weather packets the latest 10 day(s).
| Time | Temp. | Humidity | Pressure | Rain* | Wind** | Luminosity | Snow |
|---|---|---|---|---|---|---|---|
| 1777583346 | 11.67° C | 45% | 1015.7 hPa | 0 mm | - | 127 W/m² | - |
| 1777583041 | 11.67° C | 48% | 1015.9 hPa | 0 mm | - | 353 W/m² | - |
| 1777582738 | 12.22° C | 45% | 1015.7 hPa | 0 mm | - | 82 W/m² | - |
| 1777582433 | 11.67° C | 50% | 1015.7 hPa | 0 mm | - | 510 W/m² | - |
| 1777582127 | 11.11° C | 50% | 1015.9 hPa | 0 mm | - | 204 W/m² | - |
| 1777581826 | 12.22° C | 49% | 1015.9 hPa | 0 mm | - | 98 W/m² | - |
| 1777581525 | 13.33° C | 47% | 1015.6 hPa | 0 mm | - | 537 W/m² | - |
| 1777581221 | 12.78° C | 46% | 1015.7 hPa | 0 mm | - | 579 W/m² | - |
| 1777580921 | 11.67° C | 50% | 1016 hPa | 0 mm | - | 609 W/m² | - |
| 1777580615 | 12.22° C | 45% | 1016 hPa | 0 mm | - | 161 W/m² | - |
| 1777580312 | 13.33° C | 44% | 1015.7 hPa | 0 mm | - | 108 W/m² | - |
| 1777580008 | 12.78° C | 44% | 1016 hPa | 0 mm | - | 609 W/m² | - |
| 1777579704 | 12.78° C | 48% | 1016 hPa | 0 mm | - | 641 W/m² | - |
| 1777579403 | 12.22° C | 45% | 1016 hPa | 0 mm | - | 672 W/m² | - |
| 1777579098 | 13.33° C | 47% | 1015.7 hPa | 0 mm | - | 242 W/m² | - |
| 1777578798 | 12.78° C | 53% | 1016 hPa | 0 mm | - | 653 W/m² | - |
| 1777578494 | 11.67° C | 48% | 1015.9 hPa | 0 mm | - | 640 W/m² | - |
| 1777578189 | 10.56° C | 52% | 1016.1 hPa | 0 mm | - | 715 W/m² | - |
| 1777577884 | 11.11° C | 51% | 1016.2 hPa | 0 mm | - | 211 W/m² | - |
| 1777577580 | 11.11° C | 51% | 1016.1 hPa | 0 mm | - | 201 W/m² | - |
| 1777577277 | 11.67° C | 47% | 1016.1 hPa | 0 mm | - | 352 W/m² | - |
| 1777576973 | 11.67° C | 52% | 1016.2 hPa | 0 mm | - | 298 W/m² | - |
| 1777576670 | 11.11° C | 51% | 1016.4 hPa | 0 mm | - | 153 W/m² | - |
| 1777576369 | 11.67° C | 53% | 1016.2 hPa | 0 mm | - | 525 W/m² | - |
| 1777576066 | 12.22° C | 57% | 1016.3 hPa | 0 mm | - | 704 W/m² | - |
* Rain latest hour (hover to see other rain measurements)
** Current wind speed in m/s (hover to see current wind gust speed)